Cape Elizabeth- 45nm Nw Of Aberdeen, Wa (46041) Wave Buoy

12:50pm - Wed 26th Oct 2016 All times are PDT. -7 hours from GMT.

  • Sig Wave height 7.2ft
  • Swell Direction
  • Peak Period 5s
  • Average Period 5s
  • Wind
    29mph, 34mph gusts
  • Sea Temp 56°f
  • 空気 Temp 58°f
  • Sea Pressure 1003.4mb
  • Cape Elizabeth- 45nm Nw Of Aberdeen, Wa
  • Cape Elizabeth- 45nm Nw Of Aberdeen, Wa

More Historic Weather Station data

Upgrade to MSW Pro to gain access to the past 30 days of data for over 8000 Wavebouys and Weather Stations around the globe.

Join Pro

Comparision Forecast

View Surf forecast
Wed 10/26 12:50pm 7ft 5s 5s 29 34 mph 1003.4mb 56f 58f
11:50am 6.5ft 5s 5s 29 36 mph 1003.7mb 56f 55f
10:50am 7ft 5s 5s 31 36 mph 1003.2mb 56f 55f
9:50am 7ft 8s 5s 31 38 mph 1003.4mb 55f 54f
8:50am 7ft 9s 6s 29 36 mph 1004.2mb 55f 54f
7:50am 6ft 9s 6s 29 36 mph 1004.6mb 55f 54f
6:50am 6ft 10s 7s 25 29 mph 1005.3mb 55f 55f
5:50am 6ft 10s 7s 13 16 mph 1006.9mb 55f 55f
4:50am 8ft 10s 8s 13 16 mph 1007.9mb 55f 55f
3:50am 7ft 10s 8s 11 13 mph 1008mb 55f 55f
2:50am 8ft 10s 7s 13 18 mph 1010mb 55f 55f
1:50am 9ft 10s 7s 16 20 mph 1010.5mb 55f 55f
12:50am 10ft 9s 7s 13 18 mph 1011.8mb 55f 55f
Tue 10/25 11:50pm 9ft 9s 7s 20 22 mph 1012mb 55f 56f
10:50pm 10ft 9s 7s 18 22 mph 1012.6mb 55f 56f
9:50pm 10ft 10s 7s 18 22 mph 1012.9mb 55f 56f
8:50pm 11ft 10s 7s 16 20 mph 1013.3mb 55f 57f
7:50pm 11ft 10s 7s 20 25 mph 1013.3mb 55f 56f
6:50pm 10ft 10s 7s 20 22 mph 1013.1mb 55f 56f
5:50pm 11.5ft 10s 7s 18 22 mph 1013.2mb 55f 56f
4:50pm 12.5ft 11s 7s 20 25 mph 1012.9mb 55f 56f
3:50pm 13ft 10s 7s 25 29 mph 1012.7mb 55f 56f
2:50pm 13ft 11s 7s 25 34 mph 1012.3mb 55f 56f
1:50pm 13.5ft 11s 7s 25 29 mph 1011.8mb 55f 56f
12:50pm 15ft 11s 7s 25 31 mph 1011.3mb 55f 57f
11:50am 16.5ft 11s 8s 29 38 mph 1010.3mb 55f 56f
10:50am 16ft 12s 8s 34 43 mph 1008.8mb 55f 57f
9:50am 16.5ft 12s 8s 29 38 mph 1008mb 55f 57f
8:50am 17.5ft 11s 8s 34 45 mph 1006.9mb 55f 55f
7:50am 15.5ft 12s 8s 31 40 mph 1005.7mb 55f 55f
6:50am 18ft 13s 8s 34 38 mph 1005.1mb 55f 56f
5:50am 17.5ft 13s 8s 36 45 mph 1004.5mb 55f 57f
4:50am 19ft 13s 9s 36 45 mph 1003.8mb 55f 57f
3:50am 18.5ft 12s 9s 36 43 mph 1003.2mb 55f 57f
2:50am 19ft 12s 9s 31 40 mph 1003.3mb 55f 54f
1:50am 21.5ft 14s 9s 36 43 mph 1002.8mb 55f 55f
12:50am 20.5ft 13s 9s 29 36 mph 1002.9mb 55f 53f
Mon 10/24 11:50pm 19.5ft 14s 9s 31 40 mph 1002.1mb 55f 54f
10:50pm 17.5ft 12s 8s 31 43 mph 1001.5mb 55f 54f
9:50pm 19ft 13s 9s 31 38 mph 1001.3mb 55f 54f
8:50pm 19ft 13s 9s 31 38 mph 1001mb 55f 55f
7:50pm 18ft 12s 9s 29 36 mph 1000.7mb 55f 55f
6:50pm 17.5ft 13s 9s 27 34 mph 1000.5mb 55f 55f
5:50pm 17.5ft 14s 9s 34 40 mph 1000.4mb 55f 57f
4:50pm 13.5ft 11s 8s 29 36 mph 1000.4mb 55f 56f
3:50pm 12ft 11s 7s 27 31 mph 1000.3mb 55f 55f
2:50pm 12.5ft 11s 7s 29 34 mph 1000.2mb 55f 55f
1:50pm 12ft 10s 7s 29 34 mph 1000mb 55f 55f
12:50pm 12.5ft 11s 7s 29 38 mph 1000.1mb 55f 55f
11:50am 11.5ft 11s 7s 31 38 mph 1000.1mb 55f 55f
10:50am 9ft 9s 6s 29 38 mph 999.7mb 55f 55f
9:50am 8ft 8s 6s 29 34 mph 999.2mb 55f 56f
8:50am 6.5ft 8s 6s 22 25 mph 999mb 55f 55f
7:50am 5.5ft 8s 6s 25 29 mph 998.9mb 55f 56f
6:50am 4.5ft 7s 5s 13 18 mph 998.1mb 55f 56f
5:50am 4.5ft 11s 5s 16 20 mph 998.1mb 55f 57f
4:50am 4.5ft 11s 5s 20 22 mph 999.5mb 55f 58f
3:50am 4.5ft 11s 5s 18 22 mph 1000.4mb 55f 57f
2:50am 4.5ft 11s 5s 18 22 mph 1001.3mb 55f 57f
1:50am 4.5ft 12s 5s 13 18 mph 1002mb 55f 57f
12:50am 4.5ft 11s 6s 18 22 mph 1003.3mb 55f 57f
Sun 10/23 11:50pm 5ft 9s 6s 16 18 mph 1003.5mb 55f 56f
10:50pm 5ft 10s 6s 16 20 mph 1004.5mb 55f 56f
9:50pm 5.5ft 10s 7s 18 22 mph 1004.3mb 55f 56f
8:50pm 5.5ft 10s 7s 13 18 mph 1005mb 55f 56f
7:50pm 6ft 8s 7s 13 16 mph 1005.7mb 55f 56f
6:50pm 6ft 8s 7s 9 11 mph 1006.6mb 55f 56f
5:50pm 6ft 10s 7s 4 7 mph 1006.9mb 55f 56f
4:50pm 6ft 11s 7s 7 9 mph 1007.6mb 55f 56f
3:50pm 6.5ft 9s 7s 9 11 mph 1008.4mb 55f 56f
2:50pm 7ft 9s 7s 13 16 mph 1009.1mb 55f 56f
1:50pm 6.5ft 11s 7s 16 18 mph 1009.9mb 55f 55f
12:50pm 6ft 8s 6s 18 22 mph 1010.5mb 55f 54f
11:50am 7ft 8s 7s 16 20 mph 1010.6mb 55f 53f
10:50am 7ft 8s 7s 16 20 mph 1010.6mb 55f 54f
9:50am 7ft 9s 7s 18 20 mph 1010.5mb 55f 54f
8:50am 7ft 8s 7s 16 20 mph 1010.2mb 55f 54f
7:50am 7.5ft 8s 7s 16 20 mph 1009.8mb 55f 54f
6:50am 8.5ft 8s 7s 7 9 mph 1009.6mb 55f 55f
5:50am 8.5ft 11s 7s 7 9 mph 1009.5mb 55f 55f
4:50am 8ft 9s 7s 7 9 mph 1009mb 55f 55f
3:50am 9.5ft 11s 7s 13 16 mph 1008.7mb 55f 55f
2:50am 9.5ft 10s 7s 13 18 mph 1008.4mb 55f 55f
1:50am 9ft 11s 7s 20 29 mph 1007.6mb 55f 53f
12:50am 9ft 12s 7s 20 27 mph 1007.1mb 55f 53f
Sat 10/22 11:50pm 9ft 12s 6s 25 31 mph 1007mb 55f 54f
10:50pm 8ft 13s 6s 25 31 mph 1006.5mb 55f 54f
9:50pm 8ft 12s 6s 25 34 mph 1006.1mb 55f 55f